Time;durP1;ratioP1;P1;durP2;ratioP2;P2;SDS_P1;SDS_P2;PMS_P1;PMS_P2;Temp;Humidity;BMP_temperature;BMP_pressure;BME280_temperature;BME280_humidity;BME280_pressure;Samples;Min_cycle;Max_cycle;Signal;HPM_P1;HPM_P2
2023/09/09 00:02:47;;;;;;;12.88;9.05;;;24.80;68.60;;;;;;6129598;28;81398;-68
2023/09/09 00:05:47;;;;;;;14.65;7.82;;;24.80;68.60;;;;;;6127382;28;80889;-66
2023/09/09 00:08:48;;;;;;;11.13;7.40;;;24.80;68.50;;;;;;6142970;28;80234;-71
2023/09/09 00:11:48;;;;;;;14.18;8.95;;;24.80;68.80;;;;;;6141576;28;80964;-68
2023/09/09 00:14:49;;;;;;;11.90;7.68;;;24.80;68.70;;;;;;6129485;28;81199;-70
2023/09/09 00:17:49;;;;;;;11.50;8.23;;;24.80;68.60;;;;;;6124721;28;81155;-74
2023/09/09 00:20:50;;;;;;;11.90;8.05;;;24.90;68.60;;;;;;6115250;28;80495;-74
2023/09/09 00:23:50;;;;;;;10.40;7.63;;;24.80;68.50;;;;;;6126324;28;80518;-70
2023/09/09 00:26:51;;;;;;;10.35;8.07;;;24.80;68.60;;;;;;6123611;28;82015;-68
2023/09/09 00:29:51;;;;;;;13.00;8.60;;;24.90;68.60;;;;;;6139594;28;80940;-69
2023/09/09 00:32:52;;;;;;;10.95;8.13;;;24.80;68.50;;;;;;6125754;28;83005;-65
2023/09/09 00:35:52;;;;;;;11.63;8.13;;;24.80;68.50;;;;;;6128136;28;80415;-51
2023/09/09 00:38:53;;;;;;;13.02;8.23;;;24.80;68.50;;;;;;6128958;28;80874;-52
2023/09/09 00:41:53;;;;;;;12.43;8.50;;;24.80;68.60;;;;;;6126383;28;80906;-51
2023/09/09 00:44:54;;;;;;;12.02;8.32;;;24.80;68.60;;;;;;6126988;28;83284;-48
2023/09/09 00:47:54;;;;;;;11.68;7.95;;;24.80;68.60;;;;;;6125339;28;81912;-48
2023/09/09 00:50:55;;;;;;;13.27;8.80;;;24.80;68.70;;;;;;6124337;28;81719;-52
2023/09/09 00:53:55;;;;;;;11.68;7.60;;;24.80;68.60;;;;;;6125292;28;80758;-70
2023/09/09 00:56:58;;;;;;;11.05;7.32;;;24.80;68.70;;;;;;6124383;28;83224;-68
2023/09/09 01:00:01;;;;;;;9.65;7.18;;;24.80;68.70;;;;;;6123738;28;83659;-67
2023/09/09 01:03:02;;;;;;;11.32;7.30;;;24.80;68.70;;;;;;6125516;28;81736;-67
2023/09/09 01:06:03;;;;;;;10.85;7.65;;;24.80;68.60;;;;;;6127497;28;84794;-66
2023/09/09 01:09:04;;;;;;;10.98;7.28;;;24.80;68.50;;;;;;6128556;28;80385;-68
2023/09/09 01:12:07;;;;;;;12.10;7.78;;;24.80;68.60;;;;;;6127549;28;81561;-50
2023/09/09 01:15:07;;;;;;;14.02;8.02;;;24.80;68.50;;;;;;6116311;28;81233;-51
2023/09/09 01:18:08;;;;;;;11.98;7.05;;;24.80;68.50;;;;;;6125030;28;81689;-51
2023/09/09 01:21:09;;;;;;;9.50;7.20;;;24.80;68.50;;;;;;6115135;28;84927;-48
2023/09/09 01:24:09;;;;;;;10.55;7.90;;;24.80;68.40;;;;;;6124175;28;80501;-51
2023/09/09 01:27:10;;;;;;;12.68;7.05;;;24.80;68.40;;;;;;6126543;28;80424;-50
2023/09/09 01:30:11;;;;;;;10.80;7.30;;;24.80;68.50;;;;;;6125370;28;81047;-68
2023/09/09 01:33:12;;;;;;;13.15;7.57;;;24.80;68.40;;;;;;6124404;28;80766;-70
2023/09/09 01:36:12;;;;;;;11.85;7.57;;;24.80;68.40;;;;;;6123210;28;80596;-69
2023/09/09 01:39:13;;;;;;;11.27;7.45;;;24.80;68.30;;;;;;6125499;28;81155;-71
2023/09/09 01:42:14;;;;;;;12.48;7.78;;;24.80;68.40;;;;;;6129556;28;80134;-72
2023/09/09 01:45:16;;;;;;;11.13;7.47;;;24.70;68.50;;;;;;6139294;28;83496;-71
2023/09/09 01:48:17;;;;;;;9.23;7.05;;;24.70;68.40;;;;;;6125893;28;81721;-68
2023/09/09 01:51:18;;;;;;;14.57;8.70;;;24.70;68.40;;;;;;6139777;28;80792;-66
2023/09/09 01:54:19;;;;;;;12.20;7.72;;;24.70;68.40;;;;;;6123357;28;81758;-68
2023/09/09 01:57:21;;;;;;;11.95;6.90;;;24.70;68.40;;;;;;6123058;28;83877;-69
2023/09/09 02:00:22;;;;;;;10.25;6.75;;;24.70;68.40;;;;;;6123068;28;83081;-68
2023/09/09 02:03:25;;;;;;;10.75;6.90;;;24.70;68.50;;;;;;6123808;28;81917;-69
2023/09/09 02:06:25;;;;;;;11.43;7.55;;;24.70;68.40;;;;;;6124585;28;80646;-69
2023/09/09 02:09:26;;;;;;;10.85;7.50;;;24.70;68.30;;;;;;6125122;28;80626;-68
2023/09/09 02:12:28;;;;;;;10.73;6.95;;;24.70;68.30;;;;;;6125720;28;83569;-71
2023/09/09 02:15:29;;;;;;;11.50;7.25;;;24.70;68.20;;;;;;6127333;28;80519;-69
2023/09/09 02:18:29;;;;;;;11.68;6.85;;;24.70;68.30;;;;;;6126481;28;84102;-68
2023/09/09 02:21:30;;;;;;;9.82;6.53;;;24.70;68.30;;;;;;6121391;28;80874;-68
2023/09/09 02:24:30;;;;;;;10.40;7.05;;;24.70;68.50;;;;;;6125516;28;80791;-65
2023/09/09 02:27:31;;;;;;;11.57;6.95;;;24.70;68.40;;;;;;6126231;28;80904;-66
2023/09/09 02:30:32;;;;;;;12.38;7.30;;;24.70;68.30;;;;;;6127324;28;85583;-66
2023/09/09 02:33:32;;;;;;;10.68;6.55;;;24.70;68.20;;;;;;6135626;28;83233;-67
2023/09/09 02:36:33;;;;;;;9.23;6.30;;;24.70;68.20;;;;;;6127667;28;80461;-68
2023/09/09 02:39:33;;;;;;;11.85;7.50;;;24.70;68.20;;;;;;6138896;28;83494;-68
2023/09/09 02:42:34;;;;;;;10.88;7.25;;;24.70;68.20;;;;;;6138784;28;81863;-71
2023/09/09 02:45:34;;;;;;;10.80;7.60;;;24.70;68.10;;;;;;6126677;28;81539;-70
2023/09/09 02:48:35;;;;;;;9.98;7.80;;;24.70;68.10;;;;;;6125167;28;83393;-70
2023/09/09 02:51:36;;;;;;;9.02;6.25;;;24.70;68.10;;;;;;6129317;28;80740;-70
2023/09/09 02:54:36;;;;;;;12.52;6.82;;;24.70;68.10;;;;;;6131052;28;80334;-71
2023/09/09 02:57:37;;;;;;;9.57;6.43;;;24.70;68.20;;;;;;6141961;28;83539;-68
2023/09/09 03:00:38;;;;;;;11.45;7.35;;;24.70;68.20;;;;;;6129482;28;83696;-68
2023/09/09 03:03:38;;;;;;;10.52;6.22;;;24.70;68.20;;;;;;6129733;28;80745;-67
2023/09/09 03:06:39;;;;;;;11.45;6.90;;;24.70;68.20;;;;;;6128973;28;81518;-68
2023/09/09 03:09:40;;;;;;;11.82;6.10;;;24.70;68.10;;;;;;6127764;28;83487;-67
2023/09/09 03:12:40;;;;;;;8.07;6.22;;;24.70;68.20;;;;;;6129345;28;82119;-66
2023/09/09 03:15:41;;;;;;;9.80;6.13;;;24.70;68.10;;;;;;6129152;28;80493;-68
2023/09/09 03:18:41;;;;;;;11.57;7.10;;;24.70;68.00;;;;;;6130052;28;83576;-72
2023/09/09 03:21:42;;;;;;;8.57;6.10;;;24.70;68.10;;;;;;6117445;28;80901;-69
2023/09/09 03:24:43;;;;;;;17.83;7.18;;;24.80;68.10;;;;;;6125822;28;82099;-71
2023/09/09 03:27:43;;;;;;;10.73;6.43;;;24.70;68.10;;;;;;6125169;28;88619;-75
2023/09/09 03:30:44;;;;;;;8.13;5.55;;;24.70;68.10;;;;;;6135587;28;82041;-76
2023/09/09 03:33:44;;;;;;;9.32;6.55;;;24.70;68.20;;;;;;6127163;28;80926;-73
2023/09/09 03:36:45;;;;;;;10.32;6.45;;;24.70;68.10;;;;;;6126188;28;83169;-73
2023/09/09 03:39:45;;;;;;;9.98;6.28;;;24.70;68.10;;;;;;6127997;28;83064;-70
2023/09/09 03:42:46;;;;;;;10.65;6.43;;;24.70;68.20;;;;;;6129776;28;82749;-64
2023/09/09 03:45:47;;;;;;;8.80;5.95;;;24.70;68.10;;;;;;6128703;28;80770;-66
2023/09/09 03:48:47;;;;;;;8.93;6.18;;;24.70;68.00;;;;;;6127236;28;80760;-68
2023/09/09 03:51:48;;;;;;;8.23;6.28;;;24.70;68.10;;;;;;6125381;28;83729;-68
2023/09/09 03:54:49;;;;;;;13.05;6.72;;;24.70;68.00;;;;;;6124431;28;83139;-70
2023/09/09 03:57:51;;;;;;;10.80;6.20;;;24.70;68.00;;;;;;6126987;28;83754;-75
2023/09/09 04:00:52;;;;;;;10.90;6.80;;;24.70;68.10;;;;;;6124459;28;83361;-78
2023/09/09 04:03:52;;;;;;;8.77;5.82;;;24.70;68.00;;;;;;6129703;28;80562;-74
2023/09/09 04:06:53;;;;;;;8.93;6.07;;;24.60;67.90;;;;;;6129232;28;83647;-72
2023/09/09 04:09:54;;;;;;;12.75;7.30;;;24.70;67.90;;;;;;6128974;28;80556;-72
2023/09/09 04:12:54;;;;;;;8.57;5.88;;;24.60;67.90;;;;;;6127417;28;82988;-71
2023/09/09 04:15:56;;;;;;;9.13;6.30;;;24.70;68.00;;;;;;6112236;28;82008;-71
2023/09/09 04:18:57;;;;;;;10.68;6.38;;;24.70;67.90;;;;;;6129623;28;83326;-76
2023/09/09 04:21:57;;;;;;;8.18;5.18;;;24.60;67.90;;;;;;6117438;28;82331;-71
2023/09/09 04:24:58;;;;;;;10.38;6.28;;;24.70;67.90;;;;;;6133000;28;80489;-68
2023/09/09 04:27:59;;;;;;;10.25;5.90;;;24.70;67.90;;;;;;6126288;28;83068;-75
2023/09/09 04:30:59;;;;;;;8.68;5.90;;;24.70;68.00;;;;;;6131423;28;84011;-73
2023/09/09 04:34:00;;;;;;;9.15;6.35;;;24.60;68.00;;;;;;6128312;28;80396;-74
2023/09/09 04:37:03;;;;;;;8.98;6.30;;;24.70;68.00;;;;;;6135088;28;83302;-69
2023/09/09 04:40:05;;;;;;;11.35;5.60;;;24.70;68.20;;;;;;6127936;28;83124;-67
2023/09/09 04:43:06;;;;;;;10.50;6.00;;;24.70;68.20;;;;;;6136722;28;80661;-69
2023/09/09 04:46:07;;;;;;;10.80;5.53;;;24.70;68.00;;;;;;6123162;28;82649;-69
2023/09/09 04:49:08;;;;;;;14.95;8.02;;;24.70;68.60;;;;;;6127921;28;82170;-65
2023/09/09 04:52:09;;;;;;;16.65;9.77;;;24.60;67.00;;;;;;6124763;28;82387;-66
2023/09/09 04:55:10;;;;;;;21.83;11.57;;;24.60;66.60;;;;;;6109492;28;84493;-67
2023/09/09 04:58:11;;;;;;;23.60;11.73;;;24.50;66.50;;;;;;6109200;28;85464;-70
2023/09/09 05:01:11;;;;;;;24.33;12.55;;;24.50;66.40;;;;;;6120074;28;84227;-71
2023/09/09 05:04:12;;;;;;;21.55;12.70;;;24.40;66.30;;;;;;6121459;28;86200;-71
2023/09/09 05:07:12;;;;;;;21.83;12.32;;;24.40;66.50;;;;;;6121520;28;85858;-68
2023/09/09 05:10:13;;;;;;;22.15;12.75;;;24.40;66.80;;;;;;6122608;28;89417;-74
2023/09/09 05:13:15;;;;;;;19.73;11.25;;;24.40;66.70;;;;;;6123526;28;86073;-71
2023/09/09 05:16:16;;;;;;;22.55;11.90;;;24.40;67.20;;;;;;6121854;28;86128;-71
2023/09/09 05:19:16;;;;;;;25.10;12.40;;;24.50;67.40;;;;;;6119580;28;85084;-68
2023/09/09 05:22:17;;;;;;;28.05;12.68;;;24.50;67.60;;;;;;6121991;28;83996;-71
2023/09/09 05:25:18;;;;;;;20.55;13.73;;;24.50;67.20;;;;;;6145450;28;85746;-71
2023/09/09 05:28:19;;;;;;;24.45;12.95;;;24.60;67.50;;;;;;6122907;28;86414;-67
2023/09/09 05:31:20;;;;;;;27.85;14.55;;;24.60;67.90;;;;;;6121216;28;86048;-78
2023/09/09 05:34:20;;;;;;;20.88;13.23;;;24.60;67.70;;;;;;6120553;28;83129;-72
2023/09/09 05:37:21;;;;;;;24.65;12.85;;;24.60;67.50;;;;;;6124216;28;84390;-75
2023/09/09 05:40:22;;;;;;;28.05;13.43;;;24.60;67.80;;;;;;6123529;28;85104;-74
2023/09/09 05:43:22;;;;;;;21.33;13.50;;;24.60;67.50;;;;;;6116875;28;86241;-69
2023/09/09 05:46:23;;;;;;;22.90;14.25;;;24.60;67.60;;;;;;6123720;28;83962;-73
2023/09/09 05:49:24;;;;;;;24.52;15.13;;;24.60;67.80;;;;;;6096920;28;86091;-62
2023/09/09 05:52:24;;;;;;;21.33;13.63;;;24.60;67.50;;;;;;6076621;28;86307;-70
2023/09/09 05:55:25;;;;;;;22.33;14.18;;;24.60;67.20;;;;;;6075205;28;84673;-72
2023/09/09 05:58:25;;;;;;;26.70;14.90;;;24.60;67.10;;;;;;6077243;28;86544;-72
2023/09/09 06:01:26;;;;;;;20.90;14.27;;;24.60;67.10;;;;;;6104723;28;85343;-68
2023/09/09 06:04:27;;;;;;;23.48;13.98;;;24.70;67.10;;;;;;6102627;28;86292;-69
2023/09/09 06:07:27;;;;;;;33.97;16.85;;;24.70;66.90;;;;;;6099863;28;85355;-68
2023/09/09 06:10:28;;;;;;;26.10;14.73;;;24.70;66.70;;;;;;6104168;28;85823;-72
2023/09/09 06:13:29;;;;;;;31.73;16.67;;;24.60;67.10;;;;;;6102209;28;84778;-69
2023/09/09 06:16:29;;;;;;;32.92;16.52;;;24.70;66.60;;;;;;6102969;28;83480;-74
2023/09/09 06:19:30;;;;;;;32.70;18.83;;;24.70;66.70;;;;;;6103235;28;85360;-72
2023/09/09 06:22:32;;;;;;;34.47;19.27;;;24.70;66.00;;;;;;6104745;28;86094;-69
2023/09/09 06:25:32;;;;;;;35.78;19.73;;;24.70;65.70;;;;;;6103826;28;86338;-72
2023/09/09 06:28:33;;;;;;;39.50;19.35;;;24.70;65.50;;;;;;6103444;28;87559;-71
2023/09/09 06:31:33;;;;;;;41.45;20.52;;;24.70;65.70;;;;;;6108031;28;90776;-71
2023/09/09 06:34:34;;;;;;;39.53;20.15;;;24.70;65.50;;;;;;6103496;28;85001;-73
2023/09/09 06:37:35;;;;;;;41.10;20.27;;;24.70;66.20;;;;;;6104842;28;86057;-80
2023/09/09 06:40:35;;;;;;;39.15;19.75;;;24.70;65.70;;;;;;6105743;28;83543;-74
2023/09/09 06:43:36;;;;;;;35.05;19.25;;;24.70;65.90;;;;;;6107518;28;84390;-73
2023/09/09 06:46:36;;;;;;;38.33;20.23;;;24.70;65.80;;;;;;6096750;28;85041;-66
2023/09/09 06:49:37;;;;;;;39.67;19.45;;;24.70;65.70;;;;;;6106428;28;84899;-73
2023/09/09 06:52:38;;;;;;;36.65;20.30;;;24.70;65.60;;;;;;6104978;28;84308;-75
2023/09/09 06:55:39;;;;;;;36.00;19.85;;;24.70;65.50;;;;;;6106501;28;85171;-74
2023/09/09 06:58:39;;;;;;;35.22;20.80;;;24.80;65.60;;;;;;6099771;28;84739;-72
2023/09/09 07:01:40;;;;;;;33.15;17.85;;;24.80;65.70;;;;;;6106702;28;84699;-69
2023/09/09 07:04:40;;;;;;;34.55;19.48;;;24.80;65.70;;;;;;6106867;28;84348;-71
2023/09/09 07:07:41;;;;;;;32.88;17.90;;;24.80;65.70;;;;;;6103622;28;85812;-65
2023/09/09 07:10:41;;;;;;;32.85;18.48;;;24.80;66.70;;;;;;6105865;28;84511;-69
2023/09/09 07:13:42;;;;;;;35.83;17.25;;;24.80;66.70;;;;;;6105273;28;84345;-73
2023/09/09 07:16:42;;;;;;;27.23;15.38;;;24.90;67.30;;;;;;6117302;28;84278;-73
2023/09/09 07:19:43;;;;;;;28.42;16.63;;;24.90;67.90;;;;;;6121862;28;83865;-55
2023/09/09 07:22:43;;;;;;;32.28;16.85;;;24.90;68.50;;;;;;6124579;28;90261;-52
2023/09/09 07:25:44;;;;;;;24.75;16.08;;;24.90;68.50;;;;;;6114204;28;83553;-52
2023/09/09 07:28:45;;;;;;;23.77;15.73;;;24.90;69.40;;;;;;6118353;28;87808;-49
2023/09/09 07:31:46;;;;;;;28.08;16.27;;;24.90;68.80;;;;;;6117968;28;84140;-53
2023/09/09 07:34:46;;;;;;;24.70;16.20;;;25.00;69.60;;;;;;6120480;28;84734;-50
2023/09/09 07:37:47;;;;;;;32.78;16.88;;;25.10;70.30;;;;;;6122264;28;83033;-51
2023/09/09 07:40:48;;;;;;;26.63;15.60;;;25.10;70.20;;;;;;6120561;28;83132;-53
2023/09/09 07:43:48;;;;;;;22.63;14.73;;;25.00;69.80;;;;;;6114541;28;83522;-51
2023/09/09 07:46:49;;;;;;;22.08;13.70;;;25.10;70.00;;;;;;6113129;28;83069;-51
2023/09/09 07:49:50;;;;;;;24.30;13.63;;;25.10;70.20;;;;;;6115378;28;84634;-51
2023/09/09 07:52:50;;;;;;;21.23;14.40;;;25.10;70.30;;;;;;6100823;28;89016;-53
2023/09/09 07:55:51;;;;;;;23.77;14.55;;;25.10;70.90;;;;;;6104862;28;84093;-55
2023/09/09 07:58:51;;;;;;;27.90;15.27;;;25.20;71.20;;;;;;6107140;28;84655;-53
2023/09/09 08:01:52;;;;;;;23.88;14.10;;;25.20;72.00;;;;;;6101719;28;84493;-49
2023/09/09 08:04:52;;;;;;;23.20;13.73;;;25.20;72.70;;;;;;6100344;28;84770;-52
2023/09/09 08:07:53;;;;;;;19.67;13.55;;;25.30;72.50;;;;;;6103624;28;85991;-52
2023/09/09 08:10:53;;;;;;;33.78;15.07;;;25.30;73.30;;;;;;6099509;28;85648;-53
2023/09/09 08:13:54;;;;;;;26.15;13.45;;;25.30;74.00;;;;;;6100068;28;85235;-51
2023/09/09 08:16:55;;;;;;;25.52;13.32;;;25.30;74.30;;;;;;6104882;28;83691;-76
2023/09/09 08:19:55;;;;;;;22.45;12.68;;;25.30;74.70;;;;;;6100644;28;84763;-73
2023/09/09 08:22:56;;;;;;;18.90;11.77;;;25.40;73.40;;;;;;6095307;28;87002;-71
2023/09/09 08:25:56;;;;;;;18.63;11.57;;;25.30;72.80;;;;;;6098610;28;84012;-76
2023/09/09 08:28:57;;;;;;;22.23;11.65;;;25.40;72.20;;;;;;6106101;28;85251;-72
2023/09/09 08:31:58;;;;;;;16.17;11.50;;;25.40;71.90;;;;;;6107993;28;83629;-64
2023/09/09 08:34:59;;;;;;;18.17;11.57;;;25.40;71.40;;;;;;6104007;28;90173;-69
2023/09/09 08:37:59;;;;;;;15.77;10.20;;;25.40;70.60;;;;;;6103550;28;84032;-72
2023/09/09 08:41:00;;;;;;;16.33;10.02;;;25.40;70.40;;;;;;6106651;28;83338;-72
2023/09/09 08:44:00;;;;;;;16.63;10.82;;;25.40;70.10;;;;;;6121893;28;82899;-67
2023/09/09 08:47:01;;;;;;;16.52;10.63;;;25.40;70.30;;;;;;6126849;28;83827;-72
2023/09/09 08:50:01;;;;;;;14.85;10.93;;;25.40;70.10;;;;;;6111881;28;84509;-76
2023/09/09 08:53:04;;;;;;;16.17;10.82;;;25.50;70.10;;;;;;6123855;28;83400;-67
2023/09/09 08:56:04;;;;;;;18.20;10.52;;;25.50;70.00;;;;;;6122267;28;83765;-72
2023/09/09 08:59:05;;;;;;;16.50;10.70;;;25.60;70.80;;;;;;6119445;28;83213;-68
2023/09/09 09:02:05;;;;;;;15.15;11.40;;;25.60;70.80;;;;;;6118929;28;86220;-71
2023/09/09 09:05:06;;;;;;;19.35;11.20;;;25.60;71.10;;;;;;6117107;28;83598;-73
2023/09/09 09:08:08;;;;;;;16.90;10.73;;;25.70;71.20;;;;;;6107173;28;84291;-66
2023/09/09 09:11:09;;;;;;;16.95;10.75;;;25.70;70.70;;;;;;6124104;28;82845;-48
2023/09/09 09:14:09;;;;;;;18.63;12.75;;;25.70;70.60;;;;;;6120232;28;83695;-51
2023/09/09 09:17:10;;;;;;;16.48;10.68;;;25.70;70.70;;;;;;6106386;28;83109;-50
2023/09/09 09:20:10;;;;;;;16.63;10.75;;;25.70;71.00;;;;;;6108633;28;83162;-52
2023/09/09 09:23:11;;;;;;;17.30;11.60;;;25.60;70.90;;;;;;6107361;28;85583;-55
2023/09/09 09:26:12;;;;;;;16.13;10.95;;;25.70;71.10;;;;;;6109094;28;83230;-53
2023/09/09 09:29:12;;;;;;;21.38;10.70;;;25.60;70.80;;;;;;6117202;28;83057;-50
2023/09/09 09:32:14;;;;;;;20.63;10.38;;;25.60;70.80;;;;;;6121098;28;83063;-48
2023/09/09 09:35:14;;;;;;;15.48;9.63;;;25.60;70.60;;;;;;6102048;28;83883;-56
2023/09/09 09:38:15;;;;;;;19.60;9.50;;;25.60;70.40;;;;;;6105160;28;83036;-53
2023/09/09 09:41:15;;;;;;;12.68;9.52;;;25.70;70.30;;;;;;6104309;28;80698;-48
2023/09/09 09:44:16;;;;;;;11.73;8.85;;;25.60;70.10;;;;;;6104690;28;80626;-51
2023/09/09 09:47:16;;;;;;;14.07;9.43;;;25.70;69.80;;;;;;6106612;28;81308;-69
2023/09/09 09:50:18;;;;;;;15.07;9.50;;;25.70;69.80;;;;;;6123021;28;80613;-71
2023/09/09 09:53:18;;;;;;;12.85;9.48;;;25.70;69.70;;;;;;6125864;28;87707;-67
2023/09/09 09:56:19;;;;;;;13.52;10.15;;;25.70;70.10;;;;;;6113903;28;80836;-65
2023/09/09 09:59:20;;;;;;;17.33;10.07;;;25.70;70.30;;;;;;6103592;28;83893;-77
2023/09/09 10:02:20;;;;;;;20.95;10.18;;;25.70;70.20;;;;;;6129090;28;85170;-74
2023/09/09 10:05:21;;;;;;;15.93;9.05;;;25.70;70.70;;;;;;6117231;28;83547;-71
2023/09/09 10:08:22;;;;;;;13.95;9.77;;;25.80;69.90;;;;;;6124477;28;83239;-70
2023/09/09 10:11:22;;;;;;;19.23;9.18;;;25.90;69.70;;;;;;6127008;28;80722;-72
2023/09/09 10:14:23;;;;;;;15.00;9.10;;;25.90;69.40;;;;;;6127555;28;80419;-73
2023/09/09 10:17:24;;;;;;;23.17;9.70;;;25.90;70.00;;;;;;6125498;28;81323;-71
2023/09/09 10:20:24;;;;;;;14.55;9.70;;;25.90;68.50;;;;;;6127678;28;82701;-71
2023/09/09 10:23:25;;;;;;;25.98;9.10;;;25.90;68.00;;;;;;6124847;28;81018;-55
2023/09/09 10:26:25;;;;;;;21.70;9.55;;;25.80;68.10;;;;;;6121185;28;80831;-52
2023/09/09 10:29:26;;;;;;;18.00;8.65;;;25.80;67.50;;;;;;6125706;28;82407;-54
2023/09/09 10:32:26;;;;;;;15.40;8.88;;;25.80;67.20;;;;;;6124500;28;80624;-55
2023/09/09 10:35:27;;;;;;;17.42;9.88;;;25.90;67.00;;;;;;6123154;28;83429;-52
2023/09/09 10:38:27;;;;;;;12.40;7.70;;;25.90;67.00;;;;;;6115500;28;82475;-53
2023/09/09 10:41:28;;;;;;;21.83;9.13;;;25.90;66.70;;;;;;6118902;28;80388;-50
2023/09/09 10:44:28;;;;;;;12.32;8.50;;;25.90;66.10;;;;;;6123078;28;80817;-49
2023/09/09 10:47:29;;;;;;;14.40;8.18;;;25.90;65.80;;;;;;6129668;28;80997;-53
2023/09/09 10:50:29;;;;;;;14.00;8.32;;;25.90;64.60;;;;;;6130208;28;80379;-51
2023/09/09 10:53:30;;;;;;;11.15;6.93;;;25.90;65.20;;;;;;6129317;28;80869;-54
2023/09/09 10:56:30;;;;;;;14.63;8.13;;;26.00;64.40;;;;;;6129071;28;80556;-48
2023/09/09 10:59:34;;;;;;;12.23;7.03;;;26.10;64.20;;;;;;6125160;28;83308;-55
2023/09/09 11:02:34;;;;;;;10.80;7.55;;;26.20;64.10;;;;;;6128395;28;80465;-54
2023/09/09 11:05:35;;;;;;;15.60;8.40;;;26.20;63.90;;;;;;6130830;28;81731;-53
2023/09/09 11:08:35;;;;;;;11.73;7.38;;;26.10;63.20;;;;;;6128963;28;80570;-52
2023/09/09 11:11:42;;;;;;;14.43;7.38;;;26.00;63.70;;;;;;6128695;28;80954;-50
2023/09/09 11:14:42;;;;;;;12.15;7.65;;;26.00;64.10;;;;;;6125524;28;80918;-57
2023/09/09 11:17:43;;;;;;;10.07;7.05;;;26.00;63.70;;;;;;6128713;28;82579;-50
2023/09/09 11:20:44;;;;;;;9.55;6.57;;;25.90;63.10;;;;;;6113680;28;80474;-53
2023/09/09 11:23:44;;;;;;;10.90;6.68;;;26.00;63.20;;;;;;6121922;28;80524;-54
2023/09/09 11:26:45;;;;;;;10.65;6.57;;;25.90;62.70;;;;;;6128770;28;80542;-51
2023/09/09 11:29:45;;;;;;;9.85;7.22;;;26.00;63.30;;;;;;6124404;28;83088;-55
2023/09/09 11:32:46;;;;;;;12.35;6.88;;;26.00;62.80;;;;;;6127781;28;80561;-53
2023/09/09 11:35:46;;;;;;;11.55;7.50;;;26.00;63.00;;;;;;6117077;28;81595;-51
2023/09/09 11:38:47;;;;;;;9.32;6.30;;;26.00;63.20;;;;;;6128618;28;81952;-69
2023/09/09 11:41:47;;;;;;;10.52;7.13;;;26.00;63.00;;;;;;6129362;28;80922;-71
2023/09/09 11:44:48;;;;;;;9.88;6.75;;;26.10;63.40;;;;;;6114390;28;80364;-69
2023/09/09 11:47:48;;;;;;;9.85;7.05;;;26.20;63.00;;;;;;6126626;28;87532;-70
2023/09/09 11:50:49;;;;;;;12.05;7.18;;;26.20;62.90;;;;;;6124514;28;80624;-71
2023/09/09 11:53:50;;;;;;;11.70;6.68;;;26.10;63.30;;;;;;6126571;28;80846;-71
2023/09/09 11:56:50;;;;;;;14.77;7.35;;;26.10;63.70;;;;;;6129334;28;80214;-71
2023/09/09 11:59:51;;;;;;;11.48;7.45;;;26.30;62.80;;;;;;6125139;28;81447;-71
2023/09/09 12:02:51;;;;;;;14.25;6.88;;;26.30;62.70;;;;;;6128277;28;80472;-70
2023/09/09 12:05:52;;;;;;;11.02;7.63;;;26.20;62.60;;;;;;6127994;28;80608;-72
2023/09/09 12:08:52;;;;;;;10.93;7.30;;;26.20;62.70;;;;;;6128686;28;80755;-72
2023/09/09 12:11:53;;;;;;;10.00;7.68;;;26.20;63.00;;;;;;6129028;28;80632;-72
2023/09/09 12:14:53;;;;;;;10.20;7.25;;;26.30;63.30;;;;;;6126994;28;80382;-73
2023/09/09 12:17:54;;;;;;;11.98;7.35;;;26.30;63.30;;;;;;6126640;28;80616;-72
2023/09/09 12:20:55;;;;;;;11.10;7.18;;;26.30;62.70;;;;;;6126315;28;80820;-74
2023/09/09 12:23:55;;;;;;;9.25;7.22;;;26.30;63.20;;;;;;6127068;28;80537;-73
2023/09/09 12:26:56;;;;;;;10.05;7.00;;;26.20;62.90;;;;;;6126714;28;81046;-74
2023/09/09 12:29:56;;;;;;;11.02;7.82;;;26.20;63.30;;;;;;6127498;28;80643;-74
2023/09/09 12:32:57;;;;;;;14.40;7.82;;;26.20;62.80;;;;;;6127788;28;80714;-78
2023/09/09 12:35:57;;;;;;;9.52;6.68;;;26.10;62.20;;;;;;6127604;28;80367;-78
2023/09/09 12:38:58;;;;;;;11.65;7.20;;;26.10;62.10;;;;;;6127923;28;81323;-78
2023/09/09 12:41:59;;;;;;;12.00;7.47;;;26.10;62.70;;;;;;6129199;28;80985;-78
2023/09/09 12:44:59;;;;;;;10.27;7.53;;;26.20;63.20;;;;;;6128202;28;80426;-78
2023/09/09 12:48:00;;;;;;;12.82;8.85;;;26.20;63.10;;;;;;6129734;28;80272;-73
2023/09/09 12:51:00;;;;;;;14.15;8.68;;;26.20;63.20;;;;;;6129386;28;80425;-79
2023/09/09 12:54:01;;;;;;;11.73;7.95;;;26.10;62.50;;;;;;6129364;28;83655;-74
2023/09/09 12:57:01;;;;;;;10.05;7.35;;;26.20;63.10;;;;;;6126972;28;80740;-73
2023/09/09 13:00:04;;;;;;;10.88;7.25;;;26.20;62.80;;;;;;6126490;28;80601;-75
2023/09/09 13:03:04;;;;;;;12.20;7.18;;;26.20;63.00;;;;;;6127165;28;81184;-75
2023/09/09 13:06:05;;;;;;;12.95;6.57;;;26.10;62.70;;;;;;6109602;28;80709;-68
2023/09/09 13:09:06;;;;;;;14.57;7.43;;;26.10;62.60;;;;;;6119154;28;84804;-50
2023/09/09 13:12:06;;;;;;;10.15;7.13;;;26.00;63.50;;;;;;6120852;28;83878;-50
2023/09/09 13:15:07;;;;;;;9.95;6.68;;;26.00;62.00;;;;;;6120469;28;80313;-51
2023/09/09 13:18:07;;;;;;;13.48;7.22;;;26.00;62.30;;;;;;6119305;28;83070;-49
2023/09/09 13:21:08;;;;;;;10.05;6.95;;;26.10;62.50;;;;;;6125399;28;81215;-55
2023/09/09 13:24:08;;;;;;;12.63;7.38;;;26.10;62.50;;;;;;6121092;28;87208;-48
2023/09/09 13:27:09;;;;;;;13.88;7.72;;;26.10;62.60;;;;;;6104744;28;80955;-72
2023/09/09 13:30:10;;;;;;;11.85;7.43;;;26.20;63.20;;;;;;6124895;28;81093;-68
2023/09/09 13:33:10;;;;;;;12.73;7.68;;;26.20;62.80;;;;;;6125221;28;80409;-72
2023/09/09 13:36:11;;;;;;;10.07;7.35;;;26.20;63.50;;;;;;6123777;28;80574;-71
2023/09/09 13:39:11;;;;;;;11.30;6.72;;;26.30;63.60;;;;;;6123669;28;80612;-72
2023/09/09 13:42:12;;;;;;;8.77;7.18;;;26.30;63.50;;;;;;6126701;28;80616;-68
2023/09/09 13:45:12;;;;;;;10.00;6.47;;;26.40;63.70;;;;;;6121479;28;80840;-67
2023/09/09 13:48:13;;;;;;;11.00;7.25;;;26.40;63.40;;;;;;6126413;28;80523;-68
2023/09/09 13:51:13;;;;;;;11.98;6.57;;;26.40;63.20;;;;;;6123205;28;80376;-65
2023/09/09 13:54:14;;;;;;;12.00;6.53;;;26.30;62.70;;;;;;6121645;28;80531;-67
2023/09/09 13:57:15;;;;;;;9.90;6.70;;;26.30;62.10;;;;;;6122695;28;81182;-67
2023/09/09 14:00:15;;;;;;;18.90;6.97;;;26.30;62.60;;;;;;6120825;28;81019;-65
2023/09/09 14:03:16;;;;;;;11.60;7.15;;;26.30;63.40;;;;;;6127682;28;80279;-48
2023/09/09 14:06:16;;;;;;;9.52;6.40;;;26.30;63.20;;;;;;6118435;28;80558;-53
2023/09/09 14:09:17;;;;;;;19.95;7.30;;;26.30;62.80;;;;;;6122659;28;81377;-53
2023/09/09 14:12:17;;;;;;;14.50;6.03;;;26.40;63.00;;;;;;6118577;28;82821;-48
2023/09/09 14:15:18;;;;;;;12.48;6.28;;;26.50;61.80;;;;;;6119794;28;82136;-51
2023/09/09 14:18:18;;;;;;;12.13;6.60;;;26.50;61.90;;;;;;6121380;28;80734;-48
2023/09/09 14:21:19;;;;;;;11.57;6.03;;;26.50;61.70;;;;;;6123545;28;80706;-49
2023/09/09 14:24:20;;;;;;;15.85;7.75;;;26.50;62.10;;;;;;6119438;28;82622;-53
2023/09/09 14:27:20;;;;;;;14.82;6.93;;;26.40;62.50;;;;;;6117573;28;81153;-51
2023/09/09 14:30:21;;;;;;;9.40;6.53;;;26.30;62.20;;;;;;6112994;28;81445;-54
2023/09/09 14:33:21;;;;;;;17.50;7.15;;;26.30;62.40;;;;;;6114565;28;81086;-51
2023/09/09 14:36:22;;;;;;;13.65;7.32;;;26.20;62.50;;;;;;6124893;28;81013;-54
2023/09/09 14:39:22;;;;;;;9.90;6.15;;;26.20;62.70;;;;;;6125886;28;80632;-51
2023/09/09 14:42:23;;;;;;;10.15;6.05;;;26.10;63.10;;;;;;6124896;28;80974;-53
2023/09/09 14:45:23;;;;;;;9.57;6.53;;;26.10;63.10;;;;;;6121714;28;86591;-51
2023/09/09 14:48:24;;;;;;;11.00;6.25;;;26.10;62.80;;;;;;6127666;28;81693;-49
2023/09/09 14:51:25;;;;;;;7.97;6.20;;;26.00;63.10;;;;;;6125144;28;81068;-54
2023/09/09 14:54:25;;;;;;;10.23;6.72;;;26.00;63.20;;;;;;6128365;28;81236;-52
2023/09/09 14:57:26;;;;;;;7.88;5.97;;;26.00;63.60;;;;;;6116977;28;80183;-51
2023/09/09 15:00:26;;;;;;;17.58;6.63;;;26.00;63.60;;;;;;6126323;28;80760;-68
2023/09/09 15:03:27;;;;;;;7.55;5.78;;;26.00;63.70;;;;;;6124581;28;80578;-63
2023/09/09 15:06:28;;;;;;;8.63;5.82;;;26.00;63.70;;;;;;6121905;28;80631;-66
2023/09/09 15:09:28;;;;;;;9.80;6.25;;;25.90;64.00;;;;;;6120694;28;80425;-66
2023/09/09 15:12:29;;;;;;;10.45;6.57;;;25.90;64.20;;;;;;6116735;28;81385;-70
2023/09/09 15:15:29;;;;;;;9.25;7.10;;;25.90;64.20;;;;;;6120152;28;80882;-70
2023/09/09 15:18:30;;;;;;;16.33;6.60;;;26.00;64.30;;;;;;6128651;28;82340;-48
2023/09/09 15:21:30;;;;;;;11.07;6.95;;;25.90;64.40;;;;;;6108381;28;80576;-50
2023/09/09 15:24:31;;;;;;;10.65;6.97;;;25.90;64.60;;;;;;6108463;28;80775;-51
2023/09/09 15:27:31;;;;;;;15.00;7.18;;;25.90;64.80;;;;;;6128716;28;80577;-48